DLH1MK EDDH-EDDF
Flight info
| Callsign | DLH1MK |
|---|---|
| Flight time | 0h 44m |
| Altitude | 30000 |
| Route | AMLUH2G/33 AMLUH M852 DENIX DCT RIMET/N0453F310 T157 KOKEB/N0395F230 T157 KERAX KERAX5A |
| Aircraft | A20N/M-SDE2E3FGHIRWXY/LB1 |
Departure
| Time | 2026-05-06 15:17 |
|---|---|
| Airport | Hamburg Helmut Schmidt Airport (EDDH) |
Arrival
| Time | 2026-05-06 16:02 |
|---|---|
| Airport | Frankfurt Main Airport (EDDF) |
| Time | Latitude | Longitude | Altitude | Speed | Heading |
|---|---|---|---|---|---|
| 2026-05-06 14:48 | 53.63263 | 10.00067 | 62 ft | 0 kts | 320° |
| 2026-05-06 15:08 | 53.63261 | 10.00068 | 62 ft | 1 kts | 321° |
| 2026-05-06 15:09 | 53.63251 | 10.00082 | 62 ft | 0 kts | 320° |
| 2026-05-06 15:09 | 53.63243 | 10.00095 | 62 ft | 2 kts | 302° |
| 2026-05-06 15:09 | 53.63238 | 10.00119 | 62 ft | 2 kts | 278° |
| 2026-05-06 15:09 | 53.63238 | 10.00144 | 62 ft | 2 kts | 254° |
| 2026-05-06 15:10 | 53.63244 | 10.00164 | 62 ft | 0 kts | 233° |
| 2026-05-06 15:10 | 53.63245 | 10.00167 | 62 ft | 1 kts | 234° |
| 2026-05-06 15:10 | 53.63230 | 10.00135 | 62 ft | 2 kts | 231° |
| 2026-05-06 15:10 | 53.63226 | 10.00126 | 62 ft | 0 kts | 230° |
| 2026-05-06 15:12 | 53.63202 | 10.00080 | 61 ft | 12 kts | 229° |
| 2026-05-06 15:12 | 53.63127 | 9.99928 | 62 ft | 19 kts | 229° |
| 2026-05-06 15:13 | 53.63010 | 9.99944 | 61 ft | 18 kts | 152° |
| 2026-05-06 15:13 | 53.62907 | 9.99950 | 62 ft | 14 kts | 238° |
| 2026-05-06 15:13 | 53.62895 | 9.99912 | 62 ft | 0 kts | 242° |
| 2026-05-06 15:14 | 53.62891 | 9.99899 | 62 ft | 5 kts | 242° |
| 2026-05-06 15:14 | 53.62864 | 9.99781 | 62 ft | 12 kts | 277° |
| 2026-05-06 15:15 | 53.62916 | 9.99704 | 62 ft | 0 kts | 332° |
| 2026-05-06 15:17 | 53.63012 | 9.99621 | 62 ft | 46 kts | 333° |
| 2026-05-06 15:17 | 53.63522 | 9.99181 | 62 ft | 115 kts | 333° |
| 2026-05-06 15:17 | 53.64417 | 9.98393 | 99 ft | 167 kts | 333° |
| 2026-05-06 15:17 | 53.65453 | 9.97496 | 675 ft | 170 kts | 338° |
| 2026-05-06 15:18 | 53.66505 | 9.96607 | 1367 ft | 172 kts | 339° |
| 2026-05-06 15:18 | 53.67565 | 9.95685 | 2073 ft | 175 kts | 339° |
| 2026-05-06 15:18 | 53.68675 | 9.94802 | 2648 ft | 182 kts | 349° |
| 2026-05-06 15:18 | 53.69957 | 9.94538 | 3090 ft | 196 kts | 5° |
| 2026-05-06 15:19 | 53.71369 | 9.94602 | 3628 ft | 212 kts | 8° |
| 2026-05-06 15:19 | 53.72796 | 9.95267 | 4261 ft | 217 kts | 38° |
| 2026-05-06 15:19 | 53.73728 | 9.97199 | 5075 ft | 218 kts | 68° |
| 2026-05-06 15:19 | 53.74008 | 9.99672 | 5918 ft | 221 kts | 83° |
| 2026-05-06 15:20 | 53.74147 | 10.02255 | 6731 ft | 224 kts | 87° |
| 2026-05-06 15:20 | 53.73901 | 10.04845 | 7408 ft | 236 kts | 111° |
| 2026-05-06 15:20 | 53.73092 | 10.07348 | 7915 ft | 253 kts | 118° |
| 2026-05-06 15:20 | 53.72154 | 10.09999 | 8385 ft | 271 kts | 118° |
| 2026-05-06 15:21 | 53.71171 | 10.12811 | 9025 ft | 282 kts | 118° |
| 2026-05-06 15:21 | 53.70196 | 10.15652 | 9811 ft | 285 kts | 117° |
| 2026-05-06 15:21 | 53.69167 | 10.18487 | 10488 ft | 293 kts | 127° |
| 2026-05-06 15:21 | 53.67580 | 10.20805 | 10850 ft | 313 kts | 150° |
| 2026-05-06 15:22 | 53.65492 | 10.22111 | 11235 ft | 331 kts | 164° |
| 2026-05-06 15:22 | 53.63196 | 10.23122 | 11579 ft | 349 kts | 166° |
| 2026-05-06 15:22 | 53.60813 | 10.24156 | 11908 ft | 363 kts | 165° |
| 2026-05-06 15:22 | 53.58359 | 10.25238 | 12514 ft | 369 kts | 166° |
| 2026-05-06 15:23 | 53.55855 | 10.26364 | 13274 ft | 371 kts | 166° |
| 2026-05-06 15:23 | 53.53369 | 10.27495 | 14057 ft | 373 kts | 166° |
| 2026-05-06 15:23 | 53.50888 | 10.28626 | 14757 ft | 375 kts | 167° |
| 2026-05-06 15:23 | 53.48341 | 10.29783 | 15439 ft | 377 kts | 167° |
| 2026-05-06 15:24 | 53.45811 | 10.30933 | 16137 ft | 378 kts | 166° |
| 2026-05-06 15:24 | 53.43282 | 10.32083 | 16767 ft | 381 kts | 166° |
| 2026-05-06 15:24 | 53.40741 | 10.33233 | 17322 ft | 384 kts | 166° |
| 2026-05-06 15:24 | 53.38124 | 10.34413 | 17785 ft | 391 kts | 166° |
| 2026-05-06 15:25 | 53.35495 | 10.35597 | 18339 ft | 393 kts | 166° |
| 2026-05-06 15:25 | 53.32845 | 10.36787 | 18907 ft | 395 kts | 166° |
| 2026-05-06 15:25 | 53.30197 | 10.37974 | 19436 ft | 399 kts | 166° |
| 2026-05-06 15:25 | 53.27517 | 10.39173 | 19929 ft | 403 kts | 166° |
| 2026-05-06 15:26 | 53.24825 | 10.40376 | 20418 ft | 406 kts | 166° |
| 2026-05-06 15:26 | 53.22066 | 10.41608 | 20915 ft | 410 kts | 166° |
| 2026-05-06 15:26 | 53.19331 | 10.42829 | 21396 ft | 413 kts | 166° |
| 2026-05-06 15:26 | 53.16542 | 10.44060 | 21886 ft | 416 kts | 167° |
| 2026-05-06 15:27 | 53.13694 | 10.44941 | 22352 ft | 418 kts | 174° |
| 2026-05-06 15:27 | 53.10776 | 10.45270 | 22822 ft | 420 kts | 180° |
| 2026-05-06 15:27 | 53.07865 | 10.45047 | 23275 ft | 423 kts | 185° |
| 2026-05-06 15:27 | 53.04955 | 10.44661 | 23722 ft | 425 kts | 185° |
| 2026-05-06 15:28 | 53.01982 | 10.44246 | 24151 ft | 429 kts | 185° |
| 2026-05-06 15:28 | 52.99025 | 10.43833 | 24567 ft | 432 kts | 185° |
| 2026-05-06 15:28 | 52.96025 | 10.43416 | 25021 ft | 433 kts | 185° |
| 2026-05-06 15:28 | 52.93036 | 10.43003 | 25614 ft | 432 kts | 185° |
| 2026-05-06 15:29 | 52.90086 | 10.42598 | 26256 ft | 429 kts | 184° |
| 2026-05-06 15:29 | 52.87103 | 10.42189 | 26869 ft | 427 kts | 184° |
| 2026-05-06 15:29 | 52.84176 | 10.41790 | 27428 ft | 425 kts | 184° |
| 2026-05-06 15:29 | 52.81253 | 10.41393 | 27964 ft | 424 kts | 184° |
| 2026-05-06 15:30 | 52.78312 | 10.40993 | 28450 ft | 423 kts | 184° |
| 2026-05-06 15:30 | 52.75381 | 10.40596 | 28828 ft | 424 kts | 184° |
| 2026-05-06 15:30 | 52.72437 | 10.40199 | 29170 ft | 426 kts | 184° |
| 2026-05-06 15:30 | 52.69511 | 10.39804 | 29550 ft | 426 kts | 184° |
| 2026-05-06 15:31 | 52.66552 | 10.39406 | 29797 ft | 429 kts | 184° |
| 2026-05-06 15:31 | 52.60482 | 10.38593 | 29799 ft | 444 kts | 184° |
| 2026-05-06 15:32 | 52.54276 | 10.37760 | 29794 ft | 455 kts | 184° |
| 2026-05-06 15:32 | 52.51103 | 10.37336 | 29797 ft | 456 kts | 184° |
| 2026-05-06 15:32 | 52.44796 | 10.36500 | 29786 ft | 455 kts | 185° |
| 2026-05-06 15:33 | 52.38532 | 10.35663 | 29788 ft | 455 kts | 185° |
| 2026-05-06 15:33 | 52.32202 | 10.34821 | 29784 ft | 455 kts | 185° |
| 2026-05-06 15:34 | 52.25894 | 10.33988 | 29770 ft | 454 kts | 186° |
| 2026-05-06 15:34 | 52.19635 | 10.33158 | 29762 ft | 454 kts | 186° |
| 2026-05-06 15:35 | 52.13351 | 10.32327 | 29760 ft | 454 kts | 186° |
| 2026-05-06 15:35 | 52.07054 | 10.31499 | 29748 ft | 454 kts | 186° |
| 2026-05-06 15:36 | 52.00784 | 10.30675 | 29760 ft | 454 kts | 186° |
| 2026-05-06 15:36 | 51.94477 | 10.29851 | 29755 ft | 454 kts | 186° |
| 2026-05-06 15:37 | 51.88182 | 10.29030 | 29761 ft | 453 kts | 186° |
| 2026-05-06 15:37 | 51.81930 | 10.28216 | 29755 ft | 452 kts | 186° |
| 2026-05-06 15:38 | 51.75664 | 10.27404 | 29766 ft | 452 kts | 187° |
| 2026-05-06 15:38 | 51.69431 | 10.26596 | 29766 ft | 450 kts | 187° |
| 2026-05-06 15:39 | 51.63187 | 10.25787 | 29761 ft | 450 kts | 187° |
| 2026-05-06 15:39 | 51.56981 | 10.24990 | 29759 ft | 448 kts | 187° |
| 2026-05-06 15:40 | 51.50789 | 10.24194 | 29760 ft | 449 kts | 187° |
| 2026-05-06 15:40 | 51.44554 | 10.23395 | 29761 ft | 447 kts | 187° |
| 2026-05-06 15:41 | 51.38375 | 10.22602 | 29752 ft | 447 kts | 187° |
| 2026-05-06 15:41 | 51.32214 | 10.21963 | 29763 ft | 447 kts | 184° |
| 2026-05-06 15:42 | 51.26003 | 10.21846 | 29755 ft | 446 kts | 184° |
| 2026-05-06 15:42 | 51.19785 | 10.21692 | 29750 ft | 446 kts | 184° |
| 2026-05-06 15:43 | 51.13624 | 10.21562 | 29749 ft | 444 kts | 184° |
| 2026-05-06 15:43 | 51.07511 | 10.21457 | 29297 ft | 437 kts | 184° |
| 2026-05-06 15:44 | 51.04461 | 10.21406 | 28253 ft | 440 kts | 184° |
| 2026-05-06 15:44 | 51.01389 | 10.21348 | 26892 ft | 448 kts | 184° |
| 2026-05-06 15:44 | 50.98286 | 10.21282 | 25502 ft | 455 kts | 184° |
| 2026-05-06 15:44 | 50.95167 | 10.20545 | 24544 ft | 455 kts | 201° |
| 2026-05-06 15:45 | 50.92385 | 10.18253 | 23822 ft | 458 kts | 216° |
| 2026-05-06 15:45 | 50.89874 | 10.15242 | 23129 ft | 457 kts | 218° |
| 2026-05-06 15:45 | 50.87327 | 10.12184 | 22540 ft | 454 kts | 218° |
| 2026-05-06 15:45 | 50.84828 | 10.09219 | 22021 ft | 449 kts | 217° |
| 2026-05-06 15:46 | 50.82370 | 10.06331 | 21426 ft | 440 kts | 217° |
| 2026-05-06 15:46 | 50.79910 | 10.03462 | 20765 ft | 432 kts | 217° |
| 2026-05-06 15:46 | 50.77531 | 10.00698 | 20108 ft | 428 kts | 217° |
| 2026-05-06 15:46 | 50.75126 | 9.97913 | 19470 ft | 425 kts | 217° |
| 2026-05-06 15:47 | 50.72786 | 9.95211 | 18825 ft | 421 kts | 216° |
| 2026-05-06 15:47 | 50.70408 | 9.92468 | 18165 ft | 418 kts | 216° |
| 2026-05-06 15:47 | 50.68077 | 9.89788 | 17550 ft | 415 kts | 216° |
| 2026-05-06 15:47 | 50.65770 | 9.87139 | 16931 ft | 413 kts | 216° |
| 2026-05-06 15:48 | 50.63448 | 9.84476 | 16296 ft | 411 kts | 216° |
| 2026-05-06 15:48 | 50.61151 | 9.81844 | 15687 ft | 408 kts | 216° |
| 2026-05-06 15:48 | 50.58894 | 9.79264 | 15060 ft | 405 kts | 216° |
| 2026-05-06 15:48 | 50.56617 | 9.76662 | 14434 ft | 402 kts | 217° |
| 2026-05-06 15:49 | 50.54357 | 9.74082 | 13785 ft | 398 kts | 217° |
| 2026-05-06 15:49 | 50.52137 | 9.71550 | 13169 ft | 395 kts | 217° |
| 2026-05-06 15:49 | 50.49915 | 9.69020 | 12546 ft | 392 kts | 217° |
| 2026-05-06 15:49 | 50.47749 | 9.66555 | 12034 ft | 389 kts | 217° |
| 2026-05-06 15:50 | 50.45544 | 9.64048 | 11524 ft | 387 kts | 217° |
| 2026-05-06 15:50 | 50.43393 | 9.61605 | 11040 ft | 384 kts | 217° |
| 2026-05-06 15:50 | 50.41234 | 9.59157 | 10547 ft | 381 kts | 217° |
| 2026-05-06 15:50 | 50.39117 | 9.56757 | 10056 ft | 378 kts | 217° |
| 2026-05-06 15:51 | 50.36987 | 9.54346 | 9557 ft | 375 kts | 217° |
| 2026-05-06 15:51 | 50.34888 | 9.51973 | 9056 ft | 373 kts | 217° |
| 2026-05-06 15:51 | 50.32793 | 9.49608 | 8546 ft | 370 kts | 217° |
| 2026-05-06 15:51 | 50.30727 | 9.47279 | 8038 ft | 368 kts | 217° |
| 2026-05-06 15:52 | 50.28637 | 9.44926 | 7533 ft | 366 kts | 217° |
| 2026-05-06 15:52 | 50.26603 | 9.42633 | 7036 ft | 364 kts | 218° |
| 2026-05-06 15:52 | 50.24837 | 9.39866 | 6513 ft | 359 kts | 238° |
| 2026-05-06 15:52 | 50.23884 | 9.36270 | 6092 ft | 357 kts | 252° |
| 2026-05-06 15:53 | 50.23126 | 9.32642 | 5964 ft | 344 kts | 251° |
| 2026-05-06 15:53 | 50.22374 | 9.29224 | 5963 ft | 323 kts | 250° |
| 2026-05-06 15:53 | 50.21658 | 9.26068 | 5954 ft | 300 kts | 250° |
| 2026-05-06 15:53 | 50.20973 | 9.23085 | 5957 ft | 282 kts | 250° |
| 2026-05-06 15:54 | 50.20319 | 9.20257 | 5751 ft | 273 kts | 250° |
| 2026-05-06 15:54 | 50.19689 | 9.17540 | 5518 ft | 266 kts | 250° |
| 2026-05-06 15:54 | 50.19065 | 9.14854 | 5286 ft | 259 kts | 250° |
| 2026-05-06 15:54 | 50.18452 | 9.12215 | 5059 ft | 258 kts | 250° |
| 2026-05-06 15:55 | 50.17844 | 9.09601 | 4982 ft | 258 kts | 251° |
| 2026-05-06 15:55 | 50.17222 | 9.06938 | 4973 ft | 258 kts | 251° |
| 2026-05-06 15:55 | 50.16674 | 9.04307 | 4976 ft | 257 kts | 253° |
| 2026-05-06 15:55 | 50.16142 | 9.01632 | 4978 ft | 257 kts | 253° |
| 2026-05-06 15:56 | 50.15584 | 8.99012 | 4976 ft | 248 kts | 251° |
| 2026-05-06 15:56 | 50.15029 | 8.96568 | 4958 ft | 233 kts | 251° |
| 2026-05-06 15:56 | 50.14483 | 8.94253 | 4965 ft | 225 kts | 250° |
| 2026-05-06 15:56 | 50.13931 | 8.91974 | 4976 ft | 226 kts | 250° |
| 2026-05-06 15:57 | 50.13370 | 8.89679 | 4981 ft | 226 kts | 250° |
| 2026-05-06 15:57 | 50.12804 | 8.87366 | 4974 ft | 227 kts | 250° |
| 2026-05-06 15:57 | 50.12246 | 8.85097 | 4814 ft | 224 kts | 250° |
| 2026-05-06 15:57 | 50.11688 | 8.82821 | 4508 ft | 224 kts | 250° |
| 2026-05-06 15:58 | 50.11137 | 8.80565 | 4194 ft | 224 kts | 251° |
| 2026-05-06 15:58 | 50.10586 | 8.78304 | 3875 ft | 224 kts | 251° |
| 2026-05-06 15:58 | 50.10039 | 8.76052 | 3555 ft | 221 kts | 251° |
| 2026-05-06 15:58 | 50.09505 | 8.73848 | 3243 ft | 217 kts | 252° |
| 2026-05-06 15:59 | 50.08981 | 8.71684 | 2939 ft | 211 kts | 252° |
| 2026-05-06 15:59 | 50.08474 | 8.69584 | 2636 ft | 204 kts | 252° |
| 2026-05-06 15:59 | 50.07994 | 8.67597 | 2351 ft | 190 kts | 252° |
| 2026-05-06 15:59 | 50.07541 | 8.65720 | 2148 ft | 175 kts | 252° |
| 2026-05-06 16:00 | 50.07130 | 8.64012 | 1906 ft | 166 kts | 252° |
| 2026-05-06 16:00 | 50.06734 | 8.62369 | 1666 ft | 155 kts | 253° |
| 2026-05-06 16:00 | 50.06372 | 8.60866 | 1428 ft | 143 kts | 254° |
| 2026-05-06 16:00 | 50.06032 | 8.59464 | 1206 ft | 136 kts | 252° |
| 2026-05-06 16:01 | 50.05702 | 8.58077 | 1035 ft | 136 kts | 252° |
| 2026-05-06 16:01 | 50.05376 | 8.56696 | 858 ft | 135 kts | 252° |
| 2026-05-06 16:01 | 50.05051 | 8.55343 | 664 ft | 133 kts | 252° |
| 2026-05-06 16:01 | 50.04729 | 8.54008 | 467 ft | 132 kts | 253° |
| 2026-05-06 16:02 | 50.04414 | 8.52677 | 346 ft | 126 kts | 252° |
| 2026-05-06 16:02 | 50.04156 | 8.51590 | 335 ft | 82 kts | 249° |
| 2026-05-06 16:02 | 50.03979 | 8.51018 | 330 ft | 40 kts | 228° |
| 2026-05-06 16:02 | 50.03850 | 8.50848 | 328 ft | 11 kts | 208° |
| 2026-05-06 16:03 | 50.03785 | 8.50876 | 329 ft | 10 kts | 109° |
| 2026-05-06 16:03 | 50.03799 | 8.50994 | 330 ft | 12 kts | 71° |
| 2026-05-06 16:03 | 50.03834 | 8.51141 | 332 ft | 16 kts | 70° |
| 2026-05-06 16:03 | 50.03881 | 8.51334 | 333 ft | 21 kts | 68° |
| 2026-05-06 16:04 | 50.03939 | 8.51569 | 335 ft | 25 kts | 71° |
| 2026-05-06 16:04 | 50.04002 | 8.51841 | 336 ft | 28 kts | 72° |
| 2026-05-06 16:04 | 50.04071 | 8.52131 | 338 ft | 28 kts | 70° |
| 2026-05-06 16:04 | 50.04135 | 8.52401 | 340 ft | 24 kts | 69° |
| 2026-05-06 16:05 | 50.04195 | 8.52647 | 343 ft | 23 kts | 70° |
| 2026-05-06 16:05 | 50.04252 | 8.52886 | 346 ft | 22 kts | 69° |
| 2026-05-06 16:05 | 50.04306 | 8.53113 | 348 ft | 22 kts | 69° |
| 2026-05-06 16:05 | 50.04359 | 8.53338 | 350 ft | 22 kts | 70° |
| 2026-05-06 16:06 | 50.04400 | 8.53563 | 351 ft | 21 kts | 83° |
| 2026-05-06 16:06 | 50.04416 | 8.53801 | 351 ft | 22 kts | 85° |
| 2026-05-06 16:06 | 50.04431 | 8.54041 | 351 ft | 22 kts | 84° |
| 2026-05-06 16:06 | 50.04447 | 8.54278 | 350 ft | 21 kts | 84° |
| 2026-05-06 16:07 | 50.04450 | 8.54496 | 350 ft | 19 kts | 101° |
| 2026-05-06 16:07 | 50.04398 | 8.54666 | 350 ft | 12 kts | 129° |
| 2026-05-06 16:07 | 50.04342 | 8.54746 | 350 ft | 7 kts | 147° |
| 2026-05-06 16:07 | 50.04336 | 8.54752 | 350 ft | 0 kts | 149° |
| 2026-05-06 16:08 | 50.04300 | 8.54782 | 349 ft | 18 kts | 158° |
| 2026-05-06 16:08 | 50.04169 | 8.54853 | 349 ft | 19 kts | 160° |
| 2026-05-06 16:09 | 50.04081 | 8.54904 | 348 ft | 8 kts | 160° |
| 2026-05-06 16:09 | 50.04075 | 8.54907 | 348 ft | 0 kts | 160° |
| 2026-05-06 16:09 | 50.04071 | 8.54909 | 348 ft | 0 kts | 160° |
| 2026-05-06 16:09 | 50.04054 | 8.54919 | 348 ft | 6 kts | 159° |
| 2026-05-06 16:10 | 50.04015 | 8.54994 | 348 ft | 12 kts | 82° |
| 2026-05-06 16:10 | 50.04052 | 8.55151 | 349 ft | 17 kts | 67° |
| 2026-05-06 16:10 | 50.04092 | 8.55314 | 350 ft | 12 kts | 72° |
| 2026-05-06 16:10 | 50.04119 | 8.55444 | 350 ft | 12 kts | 71° |
| 2026-05-06 16:11 | 50.04153 | 8.55569 | 351 ft | 12 kts | 66° |
| 2026-05-06 16:11 | 50.04181 | 8.55692 | 352 ft | 12 kts | 77° |
| 2026-05-06 16:11 | 50.04210 | 8.55814 | 352 ft | 9 kts | 68° |
| 2026-05-06 16:11 | 50.04215 | 8.55833 | 352 ft | 0 kts | 70° |
| 2026-05-06 16:12 | 50.04230 | 8.55897 | 353 ft | 13 kts | 70° |
| 2026-05-06 16:12 | 50.04283 | 8.56061 | 354 ft | 17 kts | 29° |
| 2026-05-06 16:12 | 50.04399 | 8.56031 | 354 ft | 16 kts | 3° |
| 2026-05-06 16:12 | 50.04465 | 8.56168 | 355 ft | 17 kts | 70° |
| 2026-05-06 16:13 | 50.04511 | 8.56212 | 355 ft | 7 kts | 346° |
| 2026-05-06 16:13 | 50.04544 | 8.56229 | 356 ft | 0 kts | 37° |